Lester B. Pearson International Airport
CYYZ : now visible

Airfield :











YOU CAN JOIN US ON...

 
LOGIN :

Register | Disclaimer

   EN    FR    IT 

 









Legend :    VFR   Marginal VFR   IFR   Intensive IFR   Very Intensive IFR
Visi :
Ceiling :
>= 8 km
>= 3000ft
5 to 8 km
1000 to 3000 ft
1500m to 5 km
500 to 1000 ft
800 to 1500m
200 to 500 ft
< 800m
< 200 ft
Symbols :   Thunderstorms  Fog  Heavy snow  Heavy precipitations  Wind > 20 kt






- Airport Elevation : 569 ft
- IATA code : YYZ


CYYZ - Lester B. Pearson International

CURRENT METAR :
  • 220200Z 31012G19KT 15SM FEW045 M01/M10 A2993 RMK SC1 SLP143

EXPIRED METARs :
  • 220100Z 31017G23KT 15SM FEW030 FEW045 M01/M10 A2991 RMK CF1SC2 CF TR SLP139
  • 220000Z 30016G27KT 15SM BKN046 00/M10 A2991 RMK SC7 SLP138

TAF TAF CYYZ
Valid from the 22 at 00:00 until the 23 at 06:00 UTC


212338Z 2200/2306 31015G25KT P6SM BKN050
FM220200 31010KT P6SM FEW050
FM220600 29012KT P6SM FEW050 SCT100
FM221400 29015G25KT P6SM BKN040
FM221600 28015G25KT P6SM -SHRA BKN040
FM222300 30012KT P6SM FEW040
BECMG 2300/2302 30006KT RMK NXT FCST BY 220300Z
CZYZ FIR / North America



MET'MAP, your aeronautical weather chart ! - Copyright ORBIFLY December 2007 - Disclaimer

ORBIFLY MET'MAP TEAM :

Programming & Development : Alexandra Zaïnal
Concept & original design : Baudouin d'Aumeries
Assistance for programming : Marc-Olivier Méhu
Technical & hardware support : Manuel Goepfert

Contact : metmap@orbifly.com




SOURCES & CREDITS :

   NOAA       Earth
Advisory